OITM  Sahand Airport

Add Bookmark

Maragheh, Iran

Status IATA
Operational ACP
Latitude Longitude
37° 20' 52" N 46° 7' 40" E
37.348000 46.127899
Local (DST + 5) UTC (GMT + 4)
Sep 1, 2014 03:44 Sep 1, 2014 11:14
Sunrise-Sunset Local UTC
Begin Civil Twilight 06:28 01:58
Sunrise 06:54 02:24
Sunset 07:56 15:26
End Civil Twilight 08:22 15:52

Current Weather

METAR Observed VFR
OITM 011000Z 18004KT 9999 FEW035TCU 33/10 Q1014 Mon, Sep 1, 2014 @ 10:00 UTC
(1 Hour, 14 Minutes ago)
Visual Flight Rules
Wind Visibility Clouds Conditions
180° at 4 knots (7 kph) 10 km or more
  • Few at 3,500' AGL
  • No significant weather
Temperatures Readings Precipitation
Current Temp 33°C (91°F)
Dewpoint 10°C (50°F)
Humidity 24%
Altimeter 29.94"Hg
Sea Level Pressure 1014mb
Field Elevation 4396.33'
None Recorded

Additional weather within a 92.6km radius of OITM

Map ICAO Location
OITT 87.8km N (006°)

24 Hour Weather History

Loading
-

24 Hour Weather Graphs

Loading
-

CheckWX.com is intended as a tool to help pilots better visualize weather data. It is not intended as a substitute for an official weather briefing obtained from a Flight Service Station. CheckWX.com does not meet the FAA requirements for an official pre-flight weather briefing. Therefore, it's important that pilots still call and obtain an official FSS pre-flight weather briefing.